createdAt,value
2023-04-05T00:20:01.324Z,8.30
2023-04-05T00:40:03.407Z,9.80
2023-04-05T01:00:02.239Z,7.00
2023-04-05T01:20:01.716Z,6.30
2023-04-05T01:40:01.420Z,8.70
2023-04-05T02:00:02.103Z,8.60
2023-04-05T02:10:00.369Z,7.30
2023-04-05T02:20:02.526Z,5.80
2023-04-05T02:40:01.956Z,6.70
2023-04-05T03:00:01.513Z,7.50
2023-04-05T03:20:01.316Z,8.40
2023-04-05T03:40:01.483Z,6.60
2023-04-05T04:00:01.858Z,9.60
2023-04-05T04:20:01.166Z,8.00
2023-04-05T04:40:01.579Z,7.50
2023-04-05T05:00:01.570Z,5.30
2023-04-05T05:20:01.753Z,8.00
2023-04-05T05:40:01.409Z,6.60
2023-04-05T06:00:02.841Z,6.30
2023-04-05T06:20:01.236Z,7.30
2023-04-05T06:40:01.145Z,7.30
2023-04-05T07:20:01.744Z,9.30
2023-04-05T07:40:01.032Z,9.20
2023-04-05T08:00:01.475Z,8.90
2023-04-05T08:20:01.306Z,11.50
2023-04-05T09:00:02.274Z,9.70
2023-04-05T09:20:01.979Z,9.10
2023-04-05T09:40:01.142Z,12.30
2023-04-05T10:20:01.246Z,12.90
2023-04-05T11:20:01.615Z,11.60
2023-04-05T11:40:00.332Z,11.90
2023-04-05T12:00:01.032Z,10.50
2023-04-05T12:20:01.505Z,10.00
2023-04-05T13:00:01.320Z,7.30
2023-04-05T13:30:01.249Z,10.10
2023-04-05T13:40:02.301Z,13.10
2023-04-05T14:20:01.938Z,12.40
2023-04-05T14:40:02.016Z,16.40
2023-04-05T15:20:01.119Z,10.00
2023-04-05T15:50:03.985Z,10.70
2023-04-05T17:00:01.944Z,12.60
2023-04-05T17:20:01.321Z,11.20
2023-04-05T17:40:02.262Z,11.30
2023-04-05T18:00:02.651Z,10.40
2023-04-05T18:10:00.365Z,11.60
2023-04-05T18:40:02.753Z,8.90
2023-04-05T19:00:02.401Z,11.40
2023-04-05T20:40:01.158Z,11.60
2023-04-05T21:00:02.346Z,9.00
2023-04-05T22:00:02.192Z,10.90
2023-04-05T22:20:02.447Z,10.90
2023-04-05T22:40:05.922Z,11.00
2023-04-05T23:00:01.347Z,10.20
2023-04-05T23:20:01.065Z,10.50
2023-04-05T23:40:02.128Z,7.90
2023-04-05T23:50:02.001Z,9.60
